Monday, September 22, 2014, 4:08 AM EDT

KGED, Georgetown Sussex Co Airport

Location: Georgetown, DE, United States Lat: 38.683
Local Time: 4:08 AM EDT ( 8:08 GMT) Lon: -75.367
Time Zone: US/Eastern Elev: 52 ft

Show me the last for .
Show Decoded

2014-09-22 03:54 METAR KGED 220754Z AUTO VRB05KT 10SM CLR 21/12 A2979 RMK AO2 SLP086 T02110122 $
                 =
2014-09-22 02:54 METAR KGED 220654Z AUTO VRB05KT 10SM CLR 22/15 A2976 RMK AO2 SLP078 T02170150 $
                 =
2014-09-22 01:54 METAR KGED 220554Z AUTO 19005KT 10SM CLR 22/18 A2975 RMK AO2 SLP072 T02220178
                 10233 20206 53020 $ =
2014-09-22 00:54 METAR KGED 220454Z AUTO 19007KT 10SM CLR 23/19 A2972 RMK AO2 SLP064 T02280189
                 402720200 $ =
2014-09-21 23:54 METAR KGED 220354Z AUTO 19008KT 10SM CLR 23/18 A2969 RMK AO2 SLP054 T02330183 $
                 =
2014-09-21 22:54 METAR KGED 220254Z AUTO 18011KT 10SM SCT070 BKN085 22/17 A2969 RMK AO2 SLP052
                 T02170172 50000 $ =
2014-09-21 21:54 METAR KGED 220154Z AUTO 17010KT 10SM BKN090 21/17 A2970 RMK AO2 SLP055 T02110172
                 $ =
2014-09-21 20:54 METAR KGED 220054Z AUTO 19008KT 10SM CLR 22/18 A2970 RMK AO2 SLP056 T02220178 $
                 =
2014-09-21 19:54 METAR KGED 212354Z AUTO 17007KT 10SM CLR 21/18 A2969 RMK AO2 SLP052 T02110183
                 10272 20211 53006 $ =
2014-09-21 18:54 METAR KGED 212254Z AUTO 17007KT 10SM CLR 24/18 A2967 RMK AO2 SLP045 T02390183 $
                 =
2014-09-21 17:54 METAR KGED 212154Z AUTO 18005KT 10SM CLR 26/19 A2967 RMK AO2 SLP046 T02560189 $
                 =
2014-09-21 16:54 METAR KGED 212054Z AUTO VRB04KT 10SM CLR 26/19 A2967 RMK AO2 SLP046 T02610189
                 56024 $ =
2014-09-21 15:54 METAR KGED 211954Z AUTO VRB06KT 10SM CLR 26/19 A2969 RMK AO2 SLP051 T02610189 $
                 =
2014-09-21 14:54 METAR KGED 211854Z AUTO VRB06KT 10SM FEW020 26/19 A2971 RMK AO2 SLP059 T02610189
                 $ =
2014-09-21 14:31 METAR KGED 211831Z AUTO VRB05KT 10SM FEW020 26/19 A2973 RMK AO2 T02560194 =
2014-09-21 13:54 METAR KGED 211754Z AUTO 04010G16KT 10SM FEW013 OVC023 24/20 A2974 RMK AO2 SLP071
                 T02390200 10250 20211 58018 =
2014-09-21 12:54 METAR KGED 211654Z AUTO 07011KT 10SM OVC017 25/20 A2977 RMK AO2 SLP081 T02500200
                 =
2014-09-21 12:06 METAR KGED 211606Z AUTO 06008G17KT 10SM OVC015 24/21 A2979 RMK AO2 T02440206 =
2014-09-21 11:54 METAR KGED 211554Z AUTO 05008KT 10SM BKN013 24/20 A2980 RMK AO2 SLP089 T02440200
                 =
2014-09-21 11:32 METAR KGED 211532Z AUTO 07010KT 10SM FEW012 25/21 A2980 RMK AO2 T02500206 =
2014-09-21 10:54 METAR KGED 211454Z AUTO 07012KT 10SM BKN011 24/21 A2982 RMK AO2 SLP097 T02440206
                 58018 =
2014-09-21 10:25 METAR KGED 211425Z AUTO 07010KT 10SM SCT008 24/21 A2983 RMK AO2 T02390206 =
2014-09-21 09:54 METAR KGED 211354Z AUTO 06007KT 8SM OVC007 23/21 A2985 RMK AO2 CIG 005V011
                 SLP107 T02280206 =
2014-09-21 09:46 METAR KGED 211346Z AUTO 06007KT 8SM OVC005 23/21 A2986 RMK AO2 T02280206 =
2014-09-21 09:02 METAR KGED 211302Z AUTO VRB06KT 6SM BR OVC004 22/21 A2986 RMK AO2 T02170206 =
2014-09-21 08:54 METAR KGED 211254Z AUTO 06005KT 6SM BR OVC003 22/20 A2986 RMK AO2 SLP111
                 T02170200 =
2014-09-21 08:11 METAR KGED 211211Z AUTO 07012KT 3SM BR OVC003 21/20 A2987 RMK AO2 T02110200 =
2014-09-21 07:54 METAR KGED 211154Z AUTO 06011KT 2SM BR OVC002 21/20 A2987 RMK AO2 SLP115
                 T02110200 10211 20200 56013 =
2014-09-21 07:07 METAR KGED 211107Z AUTO 10006KT 1 1/4SM BR OVC002 21/20 A2988 RMK AO2 T02060200
                 =
2014-09-21 06:54 METAR KGED 211054Z AUTO 08009KT 1SM BR OVC002 21/20 A2988 RMK AO2 SLP117
                 T02060200 =
2014-09-21 06:36 METAR KGED 211036Z AUTO 07010KT 3/4SM BR OVC002 21/19 A2988 RMK AO2 T02060194 =
2014-09-21 06:28 METAR KGED 211028Z AUTO 07010KT 1SM BR OVC002 21/19 A2988 RMK AO2 T02060194 =
2014-09-21 06:10 METAR KGED 211010Z AUTO 07010KT 1 1/2SM BR OVC002 21/19 A2989 RMK AO2 T02060194
                 =
2014-09-21 05:54 METAR KGED 210954Z AUTO 06008KT 2 1/2SM BR OVC002 21/19 A2990 RMK AO2 SLP123
                 T02060194 =
2014-09-21 05:42 METAR KGED 210942Z AUTO 06007KT 2 1/2SM BR OVC003 20/19 A2990 RMK AO2 T02000194
                 =
2014-09-21 05:05 METAR KGED 210905Z AUTO VRB06KT 3SM BR OVC003 20/19 A2991 RMK AO2 T02000189 =
2014-09-21 04:54 METAR KGED 210854Z AUTO 06007KT 2 1/2SM BR OVC002 20/19 A2991 RMK AO2 SLP128
                 T02000189 58013 =
2014-09-21 04:44 METAR KGED 210844Z AUTO 06007KT 360V080 1 1/2SM BR OVC002 20/19 A2992 RMK AO2
                 T02000189 =
2014-09-21 04:19 METAR KGED 210819Z AUTO VRB05KT 1SM BR OVC002 20/19 A2994 RMK AO2 T02000189 =

Support USWX by starting your Amazon purchase here.